sensor_id;sensor_type;location;lat;lon;timestamp;temperature;humidity
13598;DHT22;38563;54.258;12.574;2023-11-22T00:01:10;0.80;99.90
13598;DHT22;38563;54.258;12.574;2023-11-22T00:03:37;1.10;99.90
13598;DHT22;38563;54.258;12.574;2023-11-22T00:06:05;1.30;99.90
13598;DHT22;38563;54.258;12.574;2023-11-22T00:08:33;1.40;99.90
13598;DHT22;38563;54.258;12.574;2023-11-22T00:10:59;1.40;99.90
13598;DHT22;38563;54.258;12.574;2023-11-22T00:13:27;1.30;99.90
13598;DHT22;38563;54.258;12.574;2023-11-22T00:15:54;1.20;99.90
13598;DHT22;38563;54.258;12.574;2023-11-22T00:18:22;1.10;99.90
13598;DHT22;38563;54.258;12.574;2023-11-22T00:20:50;1.10;99.90
13598;DHT22;38563;54.258;12.574;2023-11-22T00:23:16;1.00;99.90
13598;DHT22;38563;54.258;12.574;2023-11-22T00:25:43;1.00;99.90
13598;DHT22;38563;54.258;12.574;2023-11-22T00:28:10;1.00;99.90
13598;DHT22;38563;54.258;12.574;2023-11-22T00:30:38;0.90;99.90
13598;DHT22;38563;54.258;12.574;2023-11-22T00:33:05;0.80;99.90
13598;DHT22;38563;54.258;12.574;2023-11-22T00:35:32;0.70;99.90
13598;DHT22;38563;54.258;12.574;2023-11-22T00:37:59;0.60;99.90
13598;DHT22;38563;54.258;12.574;2023-11-22T00:40:25;0.60;99.90
13598;DHT22;38563;54.258;12.574;2023-11-22T00:42:52;0.40;99.90
13598;DHT22;38563;54.258;12.574;2023-11-22T00:45:19;0.30;99.90
13598;DHT22;38563;54.258;12.574;2023-11-22T00:47:47;0.30;99.90
13598;DHT22;38563;54.258;12.574;2023-11-22T00:50:14;0.20;99.90
13598;DHT22;38563;54.258;12.574;2023-11-22T00:52:45;0.10;99.90
13598;DHT22;38563;54.258;12.574;2023-11-22T00:55:12;0.10;99.90
13598;DHT22;38563;54.258;12.574;2023-11-22T00:57:39;0.10;99.90
13598;DHT22;38563;54.258;12.574;2023-11-22T01:00:08;0.10;99.90
13598;DHT22;38563;54.258;12.574;2023-11-22T01:02:36;0.20;99.90
13598;DHT22;38563;54.258;12.574;2023-11-22T01:05:06;0.30;99.90
13598;DHT22;38563;54.258;12.574;2023-11-22T01:07:36;0.30;99.90
13598;DHT22;38563;54.258;12.574;2023-11-22T01:10:03;0.40;99.90
13598;DHT22;38563;54.258;12.574;2023-11-22T01:12:31;0.30;99.90
13598;DHT22;38563;54.258;12.574;2023-11-22T01:14:57;0.20;99.90
13598;DHT22;38563;54.258;12.574;2023-11-22T01:17:24;0.20;99.90
13598;DHT22;38563;54.258;12.574;2023-11-22T01:19:51;0.10;99.90
13598;DHT22;38563;54.258;12.574;2023-11-22T01:22:19;0.10;99.90
13598;DHT22;38563;54.258;12.574;2023-11-22T01:24:46;0.20;99.90
13598;DHT22;38563;54.258;12.574;2023-11-22T01:27:12;0.20;99.90
13598;DHT22;38563;54.258;12.574;2023-11-22T01:29:39;0.30;99.90
13598;DHT22;38563;54.258;12.574;2023-11-22T01:32:07;0.30;99.90
13598;DHT22;38563;54.258;12.574;2023-11-22T01:34:33;0.40;99.90
13598;DHT22;38563;54.258;12.574;2023-11-22T01:37:00;0.40;99.90
13598;DHT22;38563;54.258;12.574;2023-11-22T01:39:28;0.30;99.90
13598;DHT22;38563;54.258;12.574;2023-11-22T01:41:56;0.20;99.90
13598;DHT22;38563;54.258;12.574;2023-11-22T01:44:22;0.30;99.90
13598;DHT22;38563;54.258;12.574;2023-11-22T01:46:49;0.40;99.90
13598;DHT22;38563;54.258;12.574;2023-11-22T01:49:17;0.40;99.90
13598;DHT22;38563;54.258;12.574;2023-11-22T01:51:44;0.40;99.90
13598;DHT22;38563;54.258;12.574;2023-11-22T01:54:11;0.30;99.90
13598;DHT22;38563;54.258;12.574;2023-11-22T01:56:40;0.20;99.90
13598;DHT22;38563;54.258;12.574;2023-11-22T01:59:07;0.10;99.90
13598;DHT22;38563;54.258;12.574;2023-11-22T02:01:34;0.10;99.90
13598;DHT22;38563;54.258;12.574;2023-11-22T02:04:02;0.10;99.90
13598;DHT22;38563;54.258;12.574;2023-11-22T02:06:29;0.10;99.90
13598;DHT22;38563;54.258;12.574;2023-11-22T02:08:58;0.10;99.90
13598;DHT22;38563;54.258;12.574;2023-11-22T02:11:25;0.00;99.90
13598;DHT22;38563;54.258;12.574;2023-11-22T02:13:54;-0.10;99.90
13598;DHT22;38563;54.258;12.574;2023-11-22T02:16:21;-0.10;99.90
13598;DHT22;38563;54.258;12.574;2023-11-22T02:18:48;-0.20;99.90
13598;DHT22;38563;54.258;12.574;2023-11-22T02:21:16;-0.30;99.90
13598;DHT22;38563;54.258;12.574;2023-11-22T02:23:45;-0.30;99.90
13598;DHT22;38563;54.258;12.574;2023-11-22T02:26:12;-0.30;99.90
13598;DHT22;38563;54.258;12.574;2023-11-22T02:28:38;-0.40;99.90
13598;DHT22;38563;54.258;12.574;2023-11-22T02:31:05;-0.40;99.90
13598;DHT22;38563;54.258;12.574;2023-11-22T02:33:32;-0.40;99.90
13598;DHT22;38563;54.258;12.574;2023-11-22T02:35:59;-0.50;99.90
13598;DHT22;38563;54.258;12.574;2023-11-22T02:38:28;-0.60;99.90
13598;DHT22;38563;54.258;12.574;2023-11-22T02:40:56;-0.60;99.90
13598;DHT22;38563;54.258;12.574;2023-11-22T02:43:23;-0.70;99.90
13598;DHT22;38563;54.258;12.574;2023-11-22T02:45:50;-0.70;99.90
13598;DHT22;38563;54.258;12.574;2023-11-22T02:48:17;-0.70;99.90
13598;DHT22;38563;54.258;12.574;2023-11-22T02:50:44;-0.80;99.90
13598;DHT22;38563;54.258;12.574;2023-11-22T02:53:11;-0.90;99.90
13598;DHT22;38563;54.258;12.574;2023-11-22T02:55:37;-0.90;99.90
13598;DHT22;38563;54.258;12.574;2023-11-22T02:58:07;-1.00;99.90
13598;DHT22;38563;54.258;12.574;2023-11-22T03:00:33;-1.00;99.90
13598;DHT22;38563;54.258;12.574;2023-11-22T03:03:01;-0.90;99.90
13598;DHT22;38563;54.258;12.574;2023-11-22T03:05:29;-0.90;99.90
13598;DHT22;38563;54.258;12.574;2023-11-22T03:07:56;-0.90;99.90
13598;DHT22;38563;54.258;12.574;2023-11-22T03:10:23;-0.90;99.90
13598;DHT22;38563;54.258;12.574;2023-11-22T03:12:50;-0.80;99.90
13598;DHT22;38563;54.258;12.574;2023-11-22T03:15:18;-0.80;99.90
13598;DHT22;38563;54.258;12.574;2023-11-22T03:17:45;-0.80;99.90
13598;DHT22;38563;54.258;12.574;2023-11-22T03:20:14;-0.70;99.90
13598;DHT22;38563;54.258;12.574;2023-11-22T03:22:42;-0.70;99.90
13598;DHT22;38563;54.258;12.574;2023-11-22T03:25:11;-0.60;99.90
13598;DHT22;38563;54.258;12.574;2023-11-22T03:27:39;-0.50;99.90
13598;DHT22;38563;54.258;12.574;2023-11-22T03:30:07;-0.50;99.90
13598;DHT22;38563;54.258;12.574;2023-11-22T03:32:38;-0.50;99.90
13598;DHT22;38563;54.258;12.574;2023-11-22T03:35:05;-0.40;99.90
13598;DHT22;38563;54.258;12.574;2023-11-22T03:37:32;-0.40;99.90
13598;DHT22;38563;54.258;12.574;2023-11-22T03:39:59;-0.40;99.90
13598;DHT22;38563;54.258;12.574;2023-11-22T03:42:26;-0.40;99.90
13598;DHT22;38563;54.258;12.574;2023-11-22T03:44:53;-0.40;99.90
13598;DHT22;38563;54.258;12.574;2023-11-22T03:47:20;-0.30;99.90
13598;DHT22;38563;54.258;12.574;2023-11-22T03:49:48;-0.30;99.90
13598;DHT22;38563;54.258;12.574;2023-11-22T03:52:15;-0.30;99.90
13598;DHT22;38563;54.258;12.574;2023-11-22T03:54:41;-0.30;99.90
13598;DHT22;38563;54.258;12.574;2023-11-22T03:57:08;-0.20;99.90
13598;DHT22;38563;54.258;12.574;2023-11-22T03:59:35;-0.30;99.90
13598;DHT22;38563;54.258;12.574;2023-11-22T04:02:02;-0.40;99.90
13598;DHT22;38563;54.258;12.574;2023-11-22T04:04:29;-0.40;99.90
13598;DHT22;38563;54.258;12.574;2023-11-22T04:06:57;-0.50;99.90
13598;DHT22;38563;54.258;12.574;2023-11-22T04:09:24;-0.50;99.90
13598;DHT22;38563;54.258;12.574;2023-11-22T04:11:51;-0.50;99.90
13598;DHT22;38563;54.258;12.574;2023-11-22T04:14:17;-0.60;99.90
13598;DHT22;38563;54.258;12.574;2023-11-22T04:16:45;-0.70;99.90
13598;DHT22;38563;54.258;12.574;2023-11-22T04:19:12;-0.70;99.90
13598;DHT22;38563;54.258;12.574;2023-11-22T04:21:39;-0.70;99.90
13598;DHT22;38563;54.258;12.574;2023-11-22T04:24:08;-0.70;99.90
13598;DHT22;38563;54.258;12.574;2023-11-22T04:26:34;-0.80;99.90
13598;DHT22;38563;54.258;12.574;2023-11-22T04:29:02;-0.80;99.90
13598;DHT22;38563;54.258;12.574;2023-11-22T04:31:29;-0.90;99.90
13598;DHT22;38563;54.258;12.574;2023-11-22T04:33:56;-0.90;99.90
13598;DHT22;38563;54.258;12.574;2023-11-22T04:36:24;-0.90;99.90
13598;DHT22;38563;54.258;12.574;2023-11-22T04:38:51;-0.90;99.90
13598;DHT22;38563;54.258;12.574;2023-11-22T04:41:19;-0.80;99.90
13598;DHT22;38563;54.258;12.574;2023-11-22T04:43:46;-0.60;99.90
13598;DHT22;38563;54.258;12.574;2023-11-22T04:46:12;-0.50;99.90
13598;DHT22;38563;54.258;12.574;2023-11-22T04:48:39;-0.60;99.90
13598;DHT22;38563;54.258;12.574;2023-11-22T04:51:10;-0.60;99.90
13598;DHT22;38563;54.258;12.574;2023-11-22T04:53:37;-0.60;99.90
13598;DHT22;38563;54.258;12.574;2023-11-22T04:56:04;-0.70;99.90
13598;DHT22;38563;54.258;12.574;2023-11-22T04:58:32;-0.70;99.90
13598;DHT22;38563;54.258;12.574;2023-11-22T05:00:59;-0.70;99.90
13598;DHT22;38563;54.258;12.574;2023-11-22T05:03:27;-0.80;99.90
13598;DHT22;38563;54.258;12.574;2023-11-22T05:05:53;-0.90;99.90
13598;DHT22;38563;54.258;12.574;2023-11-22T05:08:20;-0.90;99.90
13598;DHT22;38563;54.258;12.574;2023-11-22T05:10:47;-0.90;99.90
13598;DHT22;38563;54.258;12.574;2023-11-22T05:13:13;-1.00;99.90
13598;DHT22;38563;54.258;12.574;2023-11-22T05:15:41;-1.00;99.90
13598;DHT22;38563;54.258;12.574;2023-11-22T05:18:08;-0.90;99.90
13598;DHT22;38563;54.258;12.574;2023-11-22T05:20:35;-0.80;99.90
13598;DHT22;38563;54.258;12.574;2023-11-22T05:23:01;-0.80;99.90
13598;DHT22;38563;54.258;12.574;2023-11-22T05:25:29;-0.80;99.90
13598;DHT22;38563;54.258;12.574;2023-11-22T05:27:56;-0.80;99.90
13598;DHT22;38563;54.258;12.574;2023-11-22T05:30:24;-0.80;99.90
13598;DHT22;38563;54.258;12.574;2023-11-22T05:32:52;-0.80;99.90
13598;DHT22;38563;54.258;12.574;2023-11-22T05:35:19;-0.80;99.90
13598;DHT22;38563;54.258;12.574;2023-11-22T05:37:45;-1.00;99.90
13598;DHT22;38563;54.258;12.574;2023-11-22T05:40:12;-1.00;99.90
13598;DHT22;38563;54.258;12.574;2023-11-22T05:42:41;-1.10;99.90
13598;DHT22;38563;54.258;12.574;2023-11-22T05:45:09;-1.00;99.90
13598;DHT22;38563;54.258;12.574;2023-11-22T05:47:35;-1.00;99.90
13598;DHT22;38563;54.258;12.574;2023-11-22T05:50:05;-1.10;99.90
13598;DHT22;38563;54.258;12.574;2023-11-22T05:52:31;-1.20;99.90
13598;DHT22;38563;54.258;12.574;2023-11-22T05:54:58;-1.20;99.90
13598;DHT22;38563;54.258;12.574;2023-11-22T05:57:29;-1.30;99.90
13598;DHT22;38563;54.258;12.574;2023-11-22T05:59:55;-1.30;99.90
13598;DHT22;38563;54.258;12.574;2023-11-22T06:02:22;-1.30;99.90
13598;DHT22;38563;54.258;12.574;2023-11-22T06:04:49;-1.30;99.90
13598;DHT22;38563;54.258;12.574;2023-11-22T06:07:17;-1.40;99.90
13598;DHT22;38563;54.258;12.574;2023-11-22T06:09:44;-1.40;99.90
13598;DHT22;38563;54.258;12.574;2023-11-22T06:12:10;-1.40;99.90
13598;DHT22;38563;54.258;12.574;2023-11-22T06:14:37;-1.40;99.90
13598;DHT22;38563;54.258;12.574;2023-11-22T06:17:04;-1.50;99.90
13598;DHT22;38563;54.258;12.574;2023-11-22T06:19:31;-1.40;99.90
13598;DHT22;38563;54.258;12.574;2023-11-22T06:27:22;-1.30;99.90
13598;DHT22;38563;54.258;12.574;2023-11-22T06:29:49;-1.30;99.90
13598;DHT22;38563;54.258;12.574;2023-11-22T06:32:16;-1.20;99.90
13598;DHT22;38563;54.258;12.574;2023-11-22T06:34:43;-1.20;99.90
13598;DHT22;38563;54.258;12.574;2023-11-22T06:37:09;-1.10;99.90
13598;DHT22;38563;54.258;12.574;2023-11-22T06:39:36;-1.10;99.90
13598;DHT22;38563;54.258;12.574;2023-11-22T06:42:04;-1.10;99.90
13598;DHT22;38563;54.258;12.574;2023-11-22T06:44:33;-1.20;99.90
13598;DHT22;38563;54.258;12.574;2023-11-22T06:46:59;-1.20;99.90
13598;DHT22;38563;54.258;12.574;2023-11-22T06:49:27;-1.10;99.90
13598;DHT22;38563;54.258;12.574;2023-11-22T06:51:53;-1.00;99.90
13598;DHT22;38563;54.258;12.574;2023-11-22T06:54:20;-0.90;99.90
13598;DHT22;38563;54.258;12.574;2023-11-22T06:56:47;-0.90;99.90
13598;DHT22;38563;54.258;12.574;2023-11-22T06:59:14;-0.90;99.90
13598;DHT22;38563;54.258;12.574;2023-11-22T07:01:42;-0.90;99.90
13598;DHT22;38563;54.258;12.574;2023-11-22T07:04:09;-0.90;99.90
13598;DHT22;38563;54.258;12.574;2023-11-22T07:06:35;-0.80;99.90
13598;DHT22;38563;54.258;12.574;2023-11-22T07:09:03;-0.70;99.90
13598;DHT22;38563;54.258;12.574;2023-11-22T07:11:30;-0.70;99.90
13598;DHT22;38563;54.258;12.574;2023-11-22T07:13:57;-0.70;99.90
13598;DHT22;38563;54.258;12.574;2023-11-22T07:16:24;-0.60;99.90
13598;DHT22;38563;54.258;12.574;2023-11-22T07:18:52;-0.60;99.90
13598;DHT22;38563;54.258;12.574;2023-11-22T07:21:19;-0.60;99.90
13598;DHT22;38563;54.258;12.574;2023-11-22T07:23:46;-0.60;99.90
13598;DHT22;38563;54.258;12.574;2023-11-22T07:26:13;-0.50;99.90
13598;DHT22;38563;54.258;12.574;2023-11-22T07:28:40;-0.40;99.90
13598;DHT22;38563;54.258;12.574;2023-11-22T07:31:07;-0.40;99.90
13598;DHT22;38563;54.258;12.574;2023-11-22T07:33:34;-0.40;99.90
13598;DHT22;38563;54.258;12.574;2023-11-22T07:36:03;-0.40;99.90
13598;DHT22;38563;54.258;12.574;2023-11-22T07:38:29;-0.30;99.90
13598;DHT22;38563;54.258;12.574;2023-11-22T07:40:57;-0.30;99.90
13598;DHT22;38563;54.258;12.574;2023-11-22T07:43:23;-0.20;99.90
13598;DHT22;38563;54.258;12.574;2023-11-22T07:45:50;-0.20;99.90
13598;DHT22;38563;54.258;12.574;2023-11-22T07:48:17;-0.20;99.90
13598;DHT22;38563;54.258;12.574;2023-11-22T07:50:44;-0.10;99.90
13598;DHT22;38563;54.258;12.574;2023-11-22T07:53:16;-0.10;99.90
13598;DHT22;38563;54.258;12.574;2023-11-22T07:55:43;0.00;99.90
13598;DHT22;38563;54.258;12.574;2023-11-22T07:58:09;0.00;99.90
13598;DHT22;38563;54.258;12.574;2023-11-22T08:00:36;0.00;99.90
13598;DHT22;38563;54.258;12.574;2023-11-22T08:03:03;0.10;99.90
13598;DHT22;38563;54.258;12.574;2023-11-22T08:05:32;0.10;99.90
13598;DHT22;38563;54.258;12.574;2023-11-22T08:08:02;0.20;99.90
13598;DHT22;38563;54.258;12.574;2023-11-22T08:10:33;0.30;99.90
13598;DHT22;38563;54.258;12.574;2023-11-22T08:13:00;0.40;99.90
13598;DHT22;38563;54.258;12.574;2023-11-22T08:15:27;0.40;99.90
13598;DHT22;38563;54.258;12.574;2023-11-22T08:17:55;0.50;99.90
13598;DHT22;38563;54.258;12.574;2023-11-22T08:20:21;0.60;99.90
13598;DHT22;38563;54.258;12.574;2023-11-22T08:22:48;0.70;99.90
13598;DHT22;38563;54.258;12.574;2023-11-22T08:25:16;0.70;99.90
13598;DHT22;38563;54.258;12.574;2023-11-22T08:27:45;0.80;99.90
13598;DHT22;38563;54.258;12.574;2023-11-22T08:30:12;0.80;99.90
13598;DHT22;38563;54.258;12.574;2023-11-22T08:32:42;0.80;99.90
13598;DHT22;38563;54.258;12.574;2023-11-22T08:35:09;0.90;99.90
13598;DHT22;38563;54.258;12.574;2023-11-22T08:37:38;0.80;99.90
13598;DHT22;38563;54.258;12.574;2023-11-22T08:40:07;0.90;99.90
13598;DHT22;38563;54.258;12.574;2023-11-22T08:42:34;1.00;99.90
13598;DHT22;38563;54.258;12.574;2023-11-22T08:45:03;1.10;99.90
13598;DHT22;38563;54.258;12.574;2023-11-22T08:47:31;1.10;99.90
13598;DHT22;38563;54.258;12.574;2023-11-22T08:49:57;1.10;99.90
13598;DHT22;38563;54.258;12.574;2023-11-22T08:52:24;1.10;99.90
13598;DHT22;38563;54.258;12.574;2023-11-22T08:54:51;1.10;99.90
13598;DHT22;38563;54.258;12.574;2023-11-22T08:57:18;1.20;99.90
13598;DHT22;38563;54.258;12.574;2023-11-22T08:59:46;1.20;99.90
13598;DHT22;38563;54.258;12.574;2023-11-22T09:02:14;1.30;99.90
13598;DHT22;38563;54.258;12.574;2023-11-22T09:04:41;1.40;99.90
13598;DHT22;38563;54.258;12.574;2023-11-22T09:07:08;1.40;99.90
13598;DHT22;38563;54.258;12.574;2023-11-22T09:09:36;1.40;99.90
13598;DHT22;38563;54.258;12.574;2023-11-22T09:12:03;1.30;99.90
13598;DHT22;38563;54.258;12.574;2023-11-22T09:14:38;1.40;99.90
13598;DHT22;38563;54.258;12.574;2023-11-22T09:17:06;1.40;99.90
13598;DHT22;38563;54.258;12.574;2023-11-22T09:19:34;1.50;99.90
13598;DHT22;38563;54.258;12.574;2023-11-22T09:22:01;1.50;99.90
13598;DHT22;38563;54.258;12.574;2023-11-22T09:24:28;1.60;99.90
13598;DHT22;38563;54.258;12.574;2023-11-22T09:26:54;1.60;99.90
13598;DHT22;38563;54.258;12.574;2023-11-22T09:29:21;1.70;99.90
13598;DHT22;38563;54.258;12.574;2023-11-22T09:31:49;1.70;99.90
13598;DHT22;38563;54.258;12.574;2023-11-22T09:34:17;1.70;99.90
13598;DHT22;38563;54.258;12.574;2023-11-22T09:36:46;1.80;99.90
13598;DHT22;38563;54.258;12.574;2023-11-22T09:39:13;1.90;99.90
13598;DHT22;38563;54.258;12.574;2023-11-22T09:41:39;1.90;99.90
13598;DHT22;38563;54.258;12.574;2023-11-22T09:44:06;2.00;99.90
13598;DHT22;38563;54.258;12.574;2023-11-22T09:46:36;2.00;99.90
13598;DHT22;38563;54.258;12.574;2023-11-22T09:49:08;2.10;99.90
13598;DHT22;38563;54.258;12.574;2023-11-22T09:51:37;2.20;99.90
13598;DHT22;38563;54.258;12.574;2023-11-22T09:54:08;2.20;99.90
13598;DHT22;38563;54.258;12.574;2023-11-22T09:56:40;2.20;99.90
13598;DHT22;38563;54.258;12.574;2023-11-22T09:59:07;2.20;99.90
13598;DHT22;38563;54.258;12.574;2023-11-22T10:01:37;2.30;99.90
13598;DHT22;38563;54.258;12.574;2023-11-22T10:04:04;2.30;99.90
13598;DHT22;38563;54.258;12.574;2023-11-22T10:06:31;2.40;99.90
13598;DHT22;38563;54.258;12.574;2023-11-22T10:09:00;2.40;99.90
13598;DHT22;38563;54.258;12.574;2023-11-22T10:11:28;2.50;99.90
13598;DHT22;38563;54.258;12.574;2023-11-22T10:13:55;2.50;99.90
13598;DHT22;38563;54.258;12.574;2023-11-22T10:16:22;2.60;99.90
13598;DHT22;38563;54.258;12.574;2023-11-22T10:18:49;2.60;99.90
13598;DHT22;38563;54.258;12.574;2023-11-22T10:21:19;2.60;99.90
13598;DHT22;38563;54.258;12.574;2023-11-22T10:23:47;2.70;99.90
13598;DHT22;38563;54.258;12.574;2023-11-22T10:26:14;2.70;99.90
13598;DHT22;38563;54.258;12.574;2023-11-22T10:28:42;2.80;99.90
13598;DHT22;38563;54.258;12.574;2023-11-22T10:31:10;2.70;99.90
13598;DHT22;38563;54.258;12.574;2023-11-22T10:33:39;2.80;99.90
13598;DHT22;38563;54.258;12.574;2023-11-22T10:36:07;2.90;99.90
13598;DHT22;38563;54.258;12.574;2023-11-22T10:38:35;2.90;99.90
13598;DHT22;38563;54.258;12.574;2023-11-22T10:41:03;3.00;99.90
13598;DHT22;38563;54.258;12.574;2023-11-22T10:43:31;3.10;99.90
13598;DHT22;38563;54.258;12.574;2023-11-22T10:45:59;3.10;99.90
13598;DHT22;38563;54.258;12.574;2023-11-22T10:48:26;3.20;99.90
13598;DHT22;38563;54.258;12.574;2023-11-22T10:50:55;3.20;99.90
13598;DHT22;38563;54.258;12.574;2023-11-22T10:53:29;3.30;99.90
13598;DHT22;38563;54.258;12.574;2023-11-22T10:56:07;3.30;99.90
13598;DHT22;38563;54.258;12.574;2023-11-22T10:58:41;3.20;99.90
13598;DHT22;38563;54.258;12.574;2023-11-22T11:01:14;3.30;99.90
13598;DHT22;38563;54.258;12.574;2023-11-22T11:03:46;3.30;99.90
13598;DHT22;38563;54.258;12.574;2023-11-22T11:06:15;3.30;99.90
13598;DHT22;38563;54.258;12.574;2023-11-22T11:08:47;3.30;99.90
13598;DHT22;38563;54.258;12.574;2023-11-22T11:11:15;3.30;99.90
13598;DHT22;38563;54.258;12.574;2023-11-22T11:13:42;3.30;99.90
13598;DHT22;38563;54.258;12.574;2023-11-22T11:16:09;3.30;99.90
13598;DHT22;38563;54.258;12.574;2023-11-22T11:18:37;3.30;99.90
13598;DHT22;38563;54.258;12.574;2023-11-22T11:21:08;3.40;99.90
13598;DHT22;38563;54.258;12.574;2023-11-22T11:23:39;3.40;99.90
13598;DHT22;38563;54.258;12.574;2023-11-22T11:26:09;3.40;99.90
13598;DHT22;38563;54.258;12.574;2023-11-22T11:28:45;3.30;99.90
13598;DHT22;38563;54.258;12.574;2023-11-22T11:31:13;3.40;99.90
13598;DHT22;38563;54.258;12.574;2023-11-22T11:33:56;3.40;99.90
13598;DHT22;38563;54.258;12.574;2023-11-22T11:36:26;3.30;99.90
13598;DHT22;38563;54.258;12.574;2023-11-22T11:38:53;3.30;99.90
13598;DHT22;38563;54.258;12.574;2023-11-22T11:41:25;3.20;99.90
13598;DHT22;38563;54.258;12.574;2023-11-22T11:43:52;3.20;99.90
13598;DHT22;38563;54.258;12.574;2023-11-22T11:46:19;3.20;99.90
13598;DHT22;38563;54.258;12.574;2023-11-22T11:48:47;3.20;99.90
13598;DHT22;38563;54.258;12.574;2023-11-22T11:51:16;3.30;99.90
13598;DHT22;38563;54.258;12.574;2023-11-22T11:53:44;3.30;99.90
13598;DHT22;38563;54.258;12.574;2023-11-22T11:56:11;3.30;99.90
13598;DHT22;38563;54.258;12.574;2023-11-22T11:58:38;3.30;99.90
13598;DHT22;38563;54.258;12.574;2023-11-22T12:01:05;3.30;99.90
13598;DHT22;38563;54.258;12.574;2023-11-22T12:03:32;3.30;99.90
13598;DHT22;38563;54.258;12.574;2023-11-22T12:05:59;3.30;99.90
13598;DHT22;38563;54.258;12.574;2023-11-22T12:08:27;3.40;99.90
13598;DHT22;38563;54.258;12.574;2023-11-22T12:10:56;3.40;99.90
13598;DHT22;38563;54.258;12.574;2023-11-22T12:13:24;3.40;99.90
13598;DHT22;38563;54.258;12.574;2023-11-22T12:15:52;3.30;99.90
13598;DHT22;38563;54.258;12.574;2023-11-22T12:18:20;3.30;99.90
13598;DHT22;38563;54.258;12.574;2023-11-22T12:20:54;3.40;99.90
13598;DHT22;38563;54.258;12.574;2023-11-22T12:23:22;3.40;99.90
13598;DHT22;38563;54.258;12.574;2023-11-22T12:25:55;3.40;99.90
13598;DHT22;38563;54.258;12.574;2023-11-22T12:28:23;3.30;99.90
13598;DHT22;38563;54.258;12.574;2023-11-22T12:30:50;3.30;99.90
13598;DHT22;38563;54.258;12.574;2023-11-22T12:33:17;3.30;99.90
13598;DHT22;38563;54.258;12.574;2023-11-22T12:35:45;3.20;99.90
13598;DHT22;38563;54.258;12.574;2023-11-22T12:38:11;3.30;99.90
13598;DHT22;38563;54.258;12.574;2023-11-22T12:40:43;3.20;99.90
13598;DHT22;38563;54.258;12.574;2023-11-22T12:43:12;3.20;99.90
13598;DHT22;38563;54.258;12.574;2023-11-22T12:45:39;3.20;99.90
13598;DHT22;38563;54.258;12.574;2023-11-22T12:48:20;3.20;99.90
13598;DHT22;38563;54.258;12.574;2023-11-22T12:50:49;3.20;99.90
13598;DHT22;38563;54.258;12.574;2023-11-22T12:53:16;3.20;99.90
13598;DHT22;38563;54.258;12.574;2023-11-22T12:55:44;3.20;99.90
13598;DHT22;38563;54.258;12.574;2023-11-22T12:58:13;3.20;99.90
13598;DHT22;38563;54.258;12.574;2023-11-22T13:00:40;3.20;99.90
13598;DHT22;38563;54.258;12.574;2023-11-22T13:03:06;3.20;99.90
13598;DHT22;38563;54.258;12.574;2023-11-22T13:05:35;3.20;99.90
13598;DHT22;38563;54.258;12.574;2023-11-22T13:08:02;3.20;99.90
13598;DHT22;38563;54.258;12.574;2023-11-22T13:10:30;3.20;99.90
13598;DHT22;38563;54.258;12.574;2023-11-22T13:12:57;3.10;99.90
13598;DHT22;38563;54.258;12.574;2023-11-22T13:15:25;3.10;99.90
13598;DHT22;38563;54.258;12.574;2023-11-22T13:17:52;3.10;99.90
13598;DHT22;38563;54.258;12.574;2023-11-22T13:20:21;3.00;99.90
13598;DHT22;38563;54.258;12.574;2023-11-22T13:22:49;3.00;99.90
13598;DHT22;38563;54.258;12.574;2023-11-22T13:25:15;3.00;99.90
13598;DHT22;38563;54.258;12.574;2023-11-22T13:27:44;2.90;99.90
13598;DHT22;38563;54.258;12.574;2023-11-22T13:30:12;2.90;99.90
13598;DHT22;38563;54.258;12.574;2023-11-22T13:32:41;2.90;99.90
13598;DHT22;38563;54.258;12.574;2023-11-22T13:35:09;2.90;99.90
13598;DHT22;38563;54.258;12.574;2023-11-22T13:37:41;2.90;99.90
13598;DHT22;38563;54.258;12.574;2023-11-22T13:40:09;2.90;99.90
13598;DHT22;38563;54.258;12.574;2023-11-22T13:42:41;2.90;99.90
13598;DHT22;38563;54.258;12.574;2023-11-22T13:45:08;2.90;99.90
13598;DHT22;38563;54.258;12.574;2023-11-22T13:47:35;2.90;99.90
13598;DHT22;38563;54.258;12.574;2023-11-22T13:50:03;2.90;99.90
13598;DHT22;38563;54.258;12.574;2023-11-22T13:52:30;2.90;99.90
13598;DHT22;38563;54.258;12.574;2023-11-22T13:54:58;2.80;99.90
13598;DHT22;38563;54.258;12.574;2023-11-22T13:57:24;2.80;99.90
13598;DHT22;38563;54.258;12.574;2023-11-22T13:59:51;2.80;99.90
13598;DHT22;38563;54.258;12.574;2023-11-22T14:02:19;2.80;99.90
13598;DHT22;38563;54.258;12.574;2023-11-22T14:04:46;2.80;99.90
13598;DHT22;38563;54.258;12.574;2023-11-22T14:07:14;2.80;99.90
13598;DHT22;38563;54.258;12.574;2023-11-22T14:09:41;2.80;99.90
13598;DHT22;38563;54.258;12.574;2023-11-22T14:12:07;2.80;99.90
13598;DHT22;38563;54.258;12.574;2023-11-22T14:14:34;2.80;99.90
13598;DHT22;38563;54.258;12.574;2023-11-22T14:17:01;2.80;99.90
13598;DHT22;38563;54.258;12.574;2023-11-22T14:19:28;2.80;99.90
13598;DHT22;38563;54.258;12.574;2023-11-22T14:21:54;2.80;99.90
13598;DHT22;38563;54.258;12.574;2023-11-22T14:24:22;2.80;99.90
13598;DHT22;38563;54.258;12.574;2023-11-22T14:26:49;2.80;99.90
13598;DHT22;38563;54.258;12.574;2023-11-22T14:29:16;2.80;99.90
13598;DHT22;38563;54.258;12.574;2023-11-22T14:31:43;2.70;99.90
13598;DHT22;38563;54.258;12.574;2023-11-22T14:34:10;2.70;99.90
13598;DHT22;38563;54.258;12.574;2023-11-22T14:36:37;2.70;99.90
13598;DHT22;38563;54.258;12.574;2023-11-22T14:39:04;2.70;99.90
13598;DHT22;38563;54.258;12.574;2023-11-22T14:41:34;2.70;99.90
13598;DHT22;38563;54.258;12.574;2023-11-22T14:44:00;2.60;99.90
13598;DHT22;38563;54.258;12.574;2023-11-22T14:46:27;2.60;99.90
13598;DHT22;38563;54.258;12.574;2023-11-22T14:48:54;2.60;99.90
13598;DHT22;38563;54.258;12.574;2023-11-22T14:51:21;2.60;99.90
13598;DHT22;38563;54.258;12.574;2023-11-22T14:53:48;2.60;99.90
13598;DHT22;38563;54.258;12.574;2023-11-22T14:56:15;2.60;99.90
13598;DHT22;38563;54.258;12.574;2023-11-22T14:58:44;2.60;99.90
13598;DHT22;38563;54.258;12.574;2023-11-22T15:01:19;2.50;99.90
13598;DHT22;38563;54.258;12.574;2023-11-22T15:03:46;2.50;99.90
13598;DHT22;38563;54.258;12.574;2023-11-22T15:06:14;2.50;99.90
13598;DHT22;38563;54.258;12.574;2023-11-22T15:08:41;2.50;99.90
13598;DHT22;38563;54.258;12.574;2023-11-22T15:11:07;2.50;99.90
13598;DHT22;38563;54.258;12.574;2023-11-22T15:13:35;2.50;99.90
13598;DHT22;38563;54.258;12.574;2023-11-22T15:16:05;2.50;99.90
13598;DHT22;38563;54.258;12.574;2023-11-22T15:18:32;2.50;99.90
13598;DHT22;38563;54.258;12.574;2023-11-22T15:20:59;2.40;99.90
13598;DHT22;38563;54.258;12.574;2023-11-22T15:23:25;2.50;99.90
13598;DHT22;38563;54.258;12.574;2023-11-22T15:25:52;2.40;99.90
13598;DHT22;38563;54.258;12.574;2023-11-22T15:28:19;2.50;99.90
13598;DHT22;38563;54.258;12.574;2023-11-22T15:30:48;2.40;99.90
13598;DHT22;38563;54.258;12.574;2023-11-22T15:33:16;2.40;99.90